sensor_id;sensor_type;location;lat;lon;timestamp;P1;durP1;ratioP1;P2;durP2;ratioP2
78772;SDS011;68111;44.728;11.290;2024-01-10T00:00:26;18.35;;;7.68;;
78772;SDS011;68111;44.728;11.290;2024-01-10T00:02:53;16.48;;;8.02;;
78772;SDS011;68111;44.728;11.290;2024-01-10T00:05:19;16.15;;;7.65;;
78772;SDS011;68111;44.728;11.290;2024-01-10T00:07:46;16.10;;;7.32;;
78772;SDS011;68111;44.728;11.290;2024-01-10T00:10:13;17.42;;;7.35;;
78772;SDS011;68111;44.728;11.290;2024-01-10T00:12:40;14.80;;;7.40;;
78772;SDS011;68111;44.728;11.290;2024-01-10T00:15:10;15.88;;;7.05;;
78772;SDS011;68111;44.728;11.290;2024-01-10T00:17:37;13.63;;;6.80;;
78772;SDS011;68111;44.728;11.290;2024-01-10T00:20:04;15.15;;;7.57;;
78772;SDS011;68111;44.728;11.290;2024-01-10T00:22:31;14.80;;;6.90;;
78772;SDS011;68111;44.728;11.290;2024-01-10T00:24:58;17.08;;;7.40;;
78772;SDS011;68111;44.728;11.290;2024-01-10T00:27:25;19.08;;;8.05;;
78772;SDS011;68111;44.728;11.290;2024-01-10T00:29:52;17.92;;;8.18;;
78772;SDS011;68111;44.728;11.290;2024-01-10T00:32:19;17.95;;;8.07;;
78772;SDS011;68111;44.728;11.290;2024-01-10T00:34:46;17.40;;;8.13;;
78772;SDS011;68111;44.728;11.290;2024-01-10T00:37:12;15.93;;;7.38;;
78772;SDS011;68111;44.728;11.290;2024-01-10T00:39:39;15.68;;;7.75;;
78772;SDS011;68111;44.728;11.290;2024-01-10T00:42:06;15.40;;;7.50;;
78772;SDS011;68111;44.728;11.290;2024-01-10T00:44:33;15.25;;;7.25;;
78772;SDS011;68111;44.728;11.290;2024-01-10T00:46:59;14.82;;;7.40;;
78772;SDS011;68111;44.728;11.290;2024-01-10T00:49:26;13.93;;;7.70;;
78772;SDS011;68111;44.728;11.290;2024-01-10T00:51:53;15.65;;;7.30;;
78772;SDS011;68111;44.728;11.290;2024-01-10T00:54:20;16.23;;;8.02;;
78772;SDS011;68111;44.728;11.290;2024-01-10T00:56:47;15.65;;;7.35;;
78772;SDS011;68111;44.728;11.290;2024-01-10T00:59:13;15.15;;;6.93;;
78772;SDS011;68111;44.728;11.290;2024-01-10T01:01:40;14.93;;;7.75;;
78772;SDS011;68111;44.728;11.290;2024-01-10T01:04:07;17.17;;;7.68;;
78772;SDS011;68111;44.728;11.290;2024-01-10T01:06:34;14.07;;;7.35;;
78772;SDS011;68111;44.728;11.290;2024-01-10T01:09:01;13.57;;;6.88;;
78772;SDS011;68111;44.728;11.290;2024-01-10T01:11:28;15.77;;;7.65;;
78772;SDS011;68111;44.728;11.290;2024-01-10T01:13:55;16.45;;;7.60;;
78772;SDS011;68111;44.728;11.290;2024-01-10T01:16:22;13.68;;;7.40;;
78772;SDS011;68111;44.728;11.290;2024-01-10T01:18:49;15.95;;;7.72;;
78772;SDS011;68111;44.728;11.290;2024-01-10T01:21:15;13.32;;;6.80;;
78772;SDS011;68111;44.728;11.290;2024-01-10T01:23:42;15.90;;;7.68;;
78772;SDS011;68111;44.728;11.290;2024-01-10T01:26:09;15.38;;;7.28;;
78772;SDS011;68111;44.728;11.290;2024-01-10T01:28:36;14.25;;;6.88;;
78772;SDS011;68111;44.728;11.290;2024-01-10T01:31:03;16.85;;;8.02;;
78772;SDS011;68111;44.728;11.290;2024-01-10T01:33:30;14.48;;;7.72;;
78772;SDS011;68111;44.728;11.290;2024-01-10T01:35:57;17.10;;;7.50;;
78772;SDS011;68111;44.728;11.290;2024-01-10T01:38:24;16.17;;;7.45;;
78772;SDS011;68111;44.728;11.290;2024-01-10T01:40:52;12.52;;;7.32;;
78772;SDS011;68111;44.728;11.290;2024-01-10T01:45:51;16.13;;;7.32;;
78772;SDS011;68111;44.728;11.290;2024-01-10T01:48:20;13.98;;;7.13;;
78772;SDS011;68111;44.728;11.290;2024-01-10T01:50:49;17.25;;;7.05;;
78772;SDS011;68111;44.728;11.290;2024-01-10T01:53:18;13.95;;;7.55;;
78772;SDS011;68111;44.728;11.290;2024-01-10T01:55:46;14.77;;;7.78;;
78772;SDS011;68111;44.728;11.290;2024-01-10T01:58:13;13.70;;;7.75;;
78772;SDS011;68111;44.728;11.290;2024-01-10T02:00:40;14.02;;;7.32;;
78772;SDS011;68111;44.728;11.290;2024-01-10T02:03:08;13.50;;;7.30;;
78772;SDS011;68111;44.728;11.290;2024-01-10T02:05:36;15.07;;;7.30;;
78772;SDS011;68111;44.728;11.290;2024-01-10T02:08:04;14.32;;;7.35;;
78772;SDS011;68111;44.728;11.290;2024-01-10T02:10:31;17.60;;;7.50;;
78772;SDS011;68111;44.728;11.290;2024-01-10T02:12:58;14.18;;;7.47;;
78772;SDS011;68111;44.728;11.290;2024-01-10T02:15:25;14.30;;;7.38;;
78772;SDS011;68111;44.728;11.290;2024-01-10T02:17:52;14.25;;;7.70;;
78772;SDS011;68111;44.728;11.290;2024-01-10T02:20:19;12.93;;;7.35;;
78772;SDS011;68111;44.728;11.290;2024-01-10T02:22:47;13.45;;;7.15;;
78772;SDS011;68111;44.728;11.290;2024-01-10T02:25:16;17.55;;;7.80;;
78772;SDS011;68111;44.728;11.290;2024-01-10T02:27:43;14.15;;;7.05;;
78772;SDS011;68111;44.728;11.290;2024-01-10T02:30:10;14.80;;;7.50;;
78772;SDS011;68111;44.728;11.290;2024-01-10T02:32:38;13.40;;;7.20;;
78772;SDS011;68111;44.728;11.290;2024-01-10T02:35:05;14.45;;;7.20;;
78772;SDS011;68111;44.728;11.290;2024-01-10T02:37:33;15.20;;;7.40;;
78772;SDS011;68111;44.728;11.290;2024-01-10T02:40:00;12.88;;;7.10;;
78772;SDS011;68111;44.728;11.290;2024-01-10T02:42:27;14.45;;;7.70;;
78772;SDS011;68111;44.728;11.290;2024-01-10T02:44:55;15.32;;;7.97;;
78772;SDS011;68111;44.728;11.290;2024-01-10T02:47:22;13.60;;;7.15;;
78772;SDS011;68111;44.728;11.290;2024-01-10T02:49:49;15.73;;;7.63;;
78772;SDS011;68111;44.728;11.290;2024-01-10T02:52:16;15.60;;;7.93;;
78772;SDS011;68111;44.728;11.290;2024-01-10T02:54:43;15.48;;;7.35;;
78772;SDS011;68111;44.728;11.290;2024-01-10T02:57:09;14.57;;;7.45;;
78772;SDS011;68111;44.728;11.290;2024-01-10T02:59:36;15.68;;;7.10;;
78772;SDS011;68111;44.728;11.290;2024-01-10T03:02:03;16.27;;;8.70;;
78772;SDS011;68111;44.728;11.290;2024-01-10T03:04:30;13.85;;;7.68;;
78772;SDS011;68111;44.728;11.290;2024-01-10T03:06:57;14.07;;;7.18;;
78772;SDS011;68111;44.728;11.290;2024-01-10T03:09:23;13.38;;;7.38;;
78772;SDS011;68111;44.728;11.290;2024-01-10T03:11:50;12.55;;;7.20;;
78772;SDS011;68111;44.728;11.290;2024-01-10T03:14:17;16.88;;;7.88;;
78772;SDS011;68111;44.728;11.290;2024-01-10T03:16:44;13.30;;;7.13;;
78772;SDS011;68111;44.728;11.290;2024-01-10T03:19:12;14.07;;;7.28;;
78772;SDS011;68111;44.728;11.290;2024-01-10T03:21:39;12.77;;;6.93;;
78772;SDS011;68111;44.728;11.290;2024-01-10T03:24:06;15.00;;;7.47;;
78772;SDS011;68111;44.728;11.290;2024-01-10T03:26:33;15.00;;;7.60;;
78772;SDS011;68111;44.728;11.290;2024-01-10T03:29:00;15.80;;;7.32;;
78772;SDS011;68111;44.728;11.290;2024-01-10T03:31:28;13.32;;;7.65;;
78772;SDS011;68111;44.728;11.290;2024-01-10T03:33:57;13.25;;;7.57;;
78772;SDS011;68111;44.728;11.290;2024-01-10T03:36:24;17.27;;;8.30;;
78772;SDS011;68111;44.728;11.290;2024-01-10T03:38:51;15.20;;;7.68;;
78772;SDS011;68111;44.728;11.290;2024-01-10T03:41:19;14.35;;;7.50;;
78772;SDS011;68111;44.728;11.290;2024-01-10T03:43:46;13.77;;;7.25;;
78772;SDS011;68111;44.728;11.290;2024-01-10T03:46:13;16.75;;;7.82;;
78772;SDS011;68111;44.728;11.290;2024-01-10T03:48:40;13.65;;;7.40;;
78772;SDS011;68111;44.728;11.290;2024-01-10T03:51:15;13.65;;;7.40;;
78772;SDS011;68111;44.728;11.290;2024-01-10T03:53:44;15.57;;;7.30;;
78772;SDS011;68111;44.728;11.290;2024-01-10T03:56:11;14.45;;;7.30;;
78772;SDS011;68111;44.728;11.290;2024-01-10T03:58:39;15.05;;;7.32;;
78772;SDS011;68111;44.728;11.290;2024-01-10T04:01:06;16.05;;;7.13;;
78772;SDS011;68111;44.728;11.290;2024-01-10T04:03:34;12.77;;;7.18;;
78772;SDS011;68111;44.728;11.290;2024-01-10T04:06:02;13.05;;;7.50;;
78772;SDS011;68111;44.728;11.290;2024-01-10T04:08:29;13.23;;;7.00;;
78772;SDS011;68111;44.728;11.290;2024-01-10T04:10:56;14.15;;;7.20;;
78772;SDS011;68111;44.728;11.290;2024-01-10T04:13:24;14.35;;;7.70;;
78772;SDS011;68111;44.728;11.290;2024-01-10T04:15:51;14.27;;;7.15;;
78772;SDS011;68111;44.728;11.290;2024-01-10T04:18:18;11.63;;;6.90;;
78772;SDS011;68111;44.728;11.290;2024-01-10T04:20:46;15.80;;;7.47;;
78772;SDS011;68111;44.728;11.290;2024-01-10T04:23:14;11.77;;;6.82;;
78772;SDS011;68111;44.728;11.290;2024-01-10T04:25:41;13.30;;;7.55;;
78772;SDS011;68111;44.728;11.290;2024-01-10T04:28:08;13.05;;;7.45;;
78772;SDS011;68111;44.728;11.290;2024-01-10T04:30:35;14.82;;;7.60;;
78772;SDS011;68111;44.728;11.290;2024-01-10T04:33:02;15.30;;;6.93;;
78772;SDS011;68111;44.728;11.290;2024-01-10T04:35:28;12.93;;;7.25;;
78772;SDS011;68111;44.728;11.290;2024-01-10T04:37:55;14.13;;;7.18;;
78772;SDS011;68111;44.728;11.290;2024-01-10T04:40:22;13.20;;;6.80;;
78772;SDS011;68111;44.728;11.290;2024-01-10T04:42:49;14.55;;;7.47;;
78772;SDS011;68111;44.728;11.290;2024-01-10T04:45:16;13.38;;;6.88;;
78772;SDS011;68111;44.728;11.290;2024-01-10T04:47:43;14.25;;;7.57;;
78772;SDS011;68111;44.728;11.290;2024-01-10T04:50:11;12.55;;;6.65;;
78772;SDS011;68111;44.728;11.290;2024-01-10T04:52:40;15.15;;;7.30;;
78772;SDS011;68111;44.728;11.290;2024-01-10T04:55:07;14.60;;;7.15;;
78772;SDS011;68111;44.728;11.290;2024-01-10T04:57:35;13.20;;;7.20;;
78772;SDS011;68111;44.728;11.290;2024-01-10T05:00:02;17.05;;;7.90;;
78772;SDS011;68111;44.728;11.290;2024-01-10T05:02:31;14.30;;;7.05;;
78772;SDS011;68111;44.728;11.290;2024-01-10T05:04:58;14.95;;;7.38;;
78772;SDS011;68111;44.728;11.290;2024-01-10T05:07:25;15.00;;;7.53;;
78772;SDS011;68111;44.728;11.290;2024-01-10T05:09:53;13.93;;;7.32;;
78772;SDS011;68111;44.728;11.290;2024-01-10T05:12:20;14.20;;;7.43;;
78772;SDS011;68111;44.728;11.290;2024-01-10T05:14:46;12.15;;;6.75;;
78772;SDS011;68111;44.728;11.290;2024-01-10T05:17:13;14.70;;;7.45;;
78772;SDS011;68111;44.728;11.290;2024-01-10T05:19:40;14.18;;;6.65;;
78772;SDS011;68111;44.728;11.290;2024-01-10T05:22:07;13.75;;;7.10;;
78772;SDS011;68111;44.728;11.290;2024-01-10T05:24:34;14.07;;;7.00;;
78772;SDS011;68111;44.728;11.290;2024-01-10T05:27:02;15.68;;;7.60;;
78772;SDS011;68111;44.728;11.290;2024-01-10T05:29:29;14.63;;;7.25;;
78772;SDS011;68111;44.728;11.290;2024-01-10T05:31:56;14.90;;;7.32;;
78772;SDS011;68111;44.728;11.290;2024-01-10T05:34:23;15.20;;;7.40;;
78772;SDS011;68111;44.728;11.290;2024-01-10T05:36:50;15.25;;;7.13;;
78772;SDS011;68111;44.728;11.290;2024-01-10T05:39:16;14.60;;;8.05;;
78772;SDS011;68111;44.728;11.290;2024-01-10T05:41:47;12.77;;;7.10;;
78772;SDS011;68111;44.728;11.290;2024-01-10T05:44:14;13.00;;;7.05;;
78772;SDS011;68111;44.728;11.290;2024-01-10T05:46:41;16.70;;;7.90;;
78772;SDS011;68111;44.728;11.290;2024-01-10T05:49:11;16.17;;;7.07;;
78772;SDS011;68111;44.728;11.290;2024-01-10T05:51:38;13.23;;;7.30;;
78772;SDS011;68111;44.728;11.290;2024-01-10T05:54:05;12.70;;;6.85;;
78772;SDS011;68111;44.728;11.290;2024-01-10T05:56:33;12.52;;;7.30;;
78772;SDS011;68111;44.728;11.290;2024-01-10T05:59:00;15.18;;;7.20;;
78772;SDS011;68111;44.728;11.290;2024-01-10T06:01:28;14.80;;;7.15;;
78772;SDS011;68111;44.728;11.290;2024-01-10T06:03:55;17.33;;;8.80;;
78772;SDS011;68111;44.728;11.290;2024-01-10T06:06:23;15.70;;;7.65;;
78772;SDS011;68111;44.728;11.290;2024-01-10T06:08:50;14.20;;;7.45;;
78772;SDS011;68111;44.728;11.290;2024-01-10T06:11:17;13.60;;;7.63;;
78772;SDS011;68111;44.728;11.290;2024-01-10T06:13:44;16.25;;;7.15;;
78772;SDS011;68111;44.728;11.290;2024-01-10T06:16:20;14.93;;;8.10;;
78772;SDS011;68111;44.728;11.290;2024-01-10T06:18:47;15.55;;;7.93;;
78772;SDS011;68111;44.728;11.290;2024-01-10T06:21:15;14.23;;;6.95;;
78772;SDS011;68111;44.728;11.290;2024-01-10T06:23:42;17.45;;;8.32;;
78772;SDS011;68111;44.728;11.290;2024-01-10T06:26:09;14.38;;;7.43;;
78772;SDS011;68111;44.728;11.290;2024-01-10T06:28:36;16.02;;;8.43;;
78772;SDS011;68111;44.728;11.290;2024-01-10T06:31:02;15.25;;;7.50;;
78772;SDS011;68111;44.728;11.290;2024-01-10T06:33:31;17.90;;;8.23;;
78772;SDS011;68111;44.728;11.290;2024-01-10T06:35:58;16.48;;;8.48;;
78772;SDS011;68111;44.728;11.290;2024-01-10T06:38:25;17.33;;;8.35;;
78772;SDS011;68111;44.728;11.290;2024-01-10T06:40:52;16.52;;;8.23;;
78772;SDS011;68111;44.728;11.290;2024-01-10T06:43:19;16.38;;;8.60;;
78772;SDS011;68111;44.728;11.290;2024-01-10T06:45:49;16.40;;;8.65;;
78772;SDS011;68111;44.728;11.290;2024-01-10T06:48:15;16.90;;;8.60;;
78772;SDS011;68111;44.728;11.290;2024-01-10T06:50:43;21.05;;;9.73;;
78772;SDS011;68111;44.728;11.290;2024-01-10T06:53:10;20.08;;;9.95;;
78772;SDS011;68111;44.728;11.290;2024-01-10T06:55:37;20.05;;;9.00;;
78772;SDS011;68111;44.728;11.290;2024-01-10T06:58:05;22.67;;;11.57;;
78772;SDS011;68111;44.728;11.290;2024-01-10T07:00:33;19.48;;;9.60;;
78772;SDS011;68111;44.728;11.290;2024-01-10T07:03:03;18.08;;;9.40;;
78772;SDS011;68111;44.728;11.290;2024-01-10T07:05:30;19.02;;;8.57;;
78772;SDS011;68111;44.728;11.290;2024-01-10T07:07:58;15.52;;;8.20;;
78772;SDS011;68111;44.728;11.290;2024-01-10T07:10:32;17.52;;;8.48;;
78772;SDS011;68111;44.728;11.290;2024-01-10T07:16:04;16.15;;;8.27;;
78772;SDS011;68111;44.728;11.290;2024-01-10T07:18:31;15.32;;;8.43;;
78772;SDS011;68111;44.728;11.290;2024-01-10T07:20:59;15.88;;;8.20;;
78772;SDS011;68111;44.728;11.290;2024-01-10T07:23:26;17.20;;;8.40;;
78772;SDS011;68111;44.728;11.290;2024-01-10T07:25:53;16.42;;;7.93;;
78772;SDS011;68111;44.728;11.290;2024-01-10T07:28:20;16.58;;;8.52;;
78772;SDS011;68111;44.728;11.290;2024-01-10T07:30:47;18.02;;;8.63;;
78772;SDS011;68111;44.728;11.290;2024-01-10T07:33:14;16.88;;;8.07;;
78772;SDS011;68111;44.728;11.290;2024-01-10T07:35:42;15.65;;;8.32;;
78772;SDS011;68111;44.728;11.290;2024-01-10T07:38:09;16.02;;;8.13;;
78772;SDS011;68111;44.728;11.290;2024-01-10T07:40:36;20.42;;;8.95;;
78772;SDS011;68111;44.728;11.290;2024-01-10T07:43:04;19.50;;;9.02;;
78772;SDS011;68111;44.728;11.290;2024-01-10T07:45:31;16.67;;;9.10;;
78772;SDS011;68111;44.728;11.290;2024-01-10T07:47:58;18.27;;;8.77;;
78772;SDS011;68111;44.728;11.290;2024-01-10T07:50:25;19.77;;;9.70;;
78772;SDS011;68111;44.728;11.290;2024-01-10T07:52:55;19.60;;;9.53;;
78772;SDS011;68111;44.728;11.290;2024-01-10T07:55:21;23.80;;;12.10;;
78772;SDS011;68111;44.728;11.290;2024-01-10T07:57:48;19.83;;;11.02;;
78772;SDS011;68111;44.728;11.290;2024-01-10T08:00:15;15.70;;;8.40;;
78772;SDS011;68111;44.728;11.290;2024-01-10T08:02:42;18.08;;;8.40;;
78772;SDS011;68111;44.728;11.290;2024-01-10T08:05:09;17.05;;;8.55;;
78772;SDS011;68111;44.728;11.290;2024-01-10T08:07:37;15.98;;;8.68;;
78772;SDS011;68111;44.728;11.290;2024-01-10T08:10:05;18.45;;;8.48;;
78772;SDS011;68111;44.728;11.290;2024-01-10T08:12:33;18.23;;;9.75;;
78772;SDS011;68111;44.728;11.290;2024-01-10T08:14:59;17.02;;;8.27;;
78772;SDS011;68111;44.728;11.290;2024-01-10T08:17:27;17.95;;;8.77;;
78772;SDS011;68111;44.728;11.290;2024-01-10T08:19:54;17.92;;;8.27;;
78772;SDS011;68111;44.728;11.290;2024-01-10T08:22:21;17.77;;;8.48;;
78772;SDS011;68111;44.728;11.290;2024-01-10T08:24:52;18.00;;;8.73;;
78772;SDS011;68111;44.728;11.290;2024-01-10T08:27:19;19.38;;;8.95;;
78772;SDS011;68111;44.728;11.290;2024-01-10T08:29:46;18.30;;;8.75;;
78772;SDS011;68111;44.728;11.290;2024-01-10T08:32:13;18.13;;;8.77;;
78772;SDS011;68111;44.728;11.290;2024-01-10T08:34:40;17.60;;;7.90;;
78772;SDS011;68111;44.728;11.290;2024-01-10T08:37:07;16.83;;;8.98;;
78772;SDS011;68111;44.728;11.290;2024-01-10T08:39:34;16.02;;;8.80;;
78772;SDS011;68111;44.728;11.290;2024-01-10T08:42:00;17.70;;;8.77;;
78772;SDS011;68111;44.728;11.290;2024-01-10T08:44:28;18.17;;;8.90;;
78772;SDS011;68111;44.728;11.290;2024-01-10T08:46:55;20.42;;;11.13;;
78772;SDS011;68111;44.728;11.290;2024-01-10T08:49:22;17.08;;;8.75;;
78772;SDS011;68111;44.728;11.290;2024-01-10T08:51:49;22.02;;;11.32;;
78772;SDS011;68111;44.728;11.290;2024-01-10T08:54:16;17.98;;;8.40;;
78772;SDS011;68111;44.728;11.290;2024-01-10T08:56:46;17.13;;;9.02;;
78772;SDS011;68111;44.728;11.290;2024-01-10T08:59:13;15.65;;;8.30;;
78772;SDS011;68111;44.728;11.290;2024-01-10T09:01:40;14.82;;;8.43;;
78772;SDS011;68111;44.728;11.290;2024-01-10T09:04:07;16.00;;;8.55;;
78772;SDS011;68111;44.728;11.290;2024-01-10T09:06:34;16.27;;;8.70;;
78772;SDS011;68111;44.728;11.290;2024-01-10T09:09:04;16.73;;;8.50;;
78772;SDS011;68111;44.728;11.290;2024-01-10T09:11:31;17.98;;;9.00;;
78772;SDS011;68111;44.728;11.290;2024-01-10T09:14:02;18.63;;;9.82;;
78772;SDS011;68111;44.728;11.290;2024-01-10T09:16:29;17.33;;;8.40;;
78772;SDS011;68111;44.728;11.290;2024-01-10T09:18:56;17.08;;;7.88;;
78772;SDS011;68111;44.728;11.290;2024-01-10T09:21:24;16.77;;;8.98;;
78772;SDS011;68111;44.728;11.290;2024-01-10T09:23:53;18.40;;;8.93;;
78772;SDS011;68111;44.728;11.290;2024-01-10T09:26:19;16.83;;;9.05;;
78772;SDS011;68111;44.728;11.290;2024-01-10T09:28:46;18.00;;;9.48;;
78772;SDS011;68111;44.728;11.290;2024-01-10T09:31:13;18.27;;;9.57;;
78772;SDS011;68111;44.728;11.290;2024-01-10T09:33:41;16.10;;;9.13;;
78772;SDS011;68111;44.728;11.290;2024-01-10T09:36:08;19.88;;;10.00;;
78772;SDS011;68111;44.728;11.290;2024-01-10T09:38:35;16.73;;;9.32;;
78772;SDS011;68111;44.728;11.290;2024-01-10T09:41:04;16.67;;;9.30;;
78772;SDS011;68111;44.728;11.290;2024-01-10T09:43:32;17.77;;;8.93;;
78772;SDS011;68111;44.728;11.290;2024-01-10T09:46:02;18.30;;;9.85;;
78772;SDS011;68111;44.728;11.290;2024-01-10T09:48:31;15.27;;;8.65;;
78772;SDS011;68111;44.728;11.290;2024-01-10T09:50:59;16.88;;;10.10;;
78772;SDS011;68111;44.728;11.290;2024-01-10T09:53:26;20.10;;;10.40;;
78772;SDS011;68111;44.728;11.290;2024-01-10T09:55:54;17.90;;;9.70;;
78772;SDS011;68111;44.728;11.290;2024-01-10T09:58:26;21.10;;;10.15;;
78772;SDS011;68111;44.728;11.290;2024-01-10T10:00:53;18.85;;;10.00;;
78772;SDS011;68111;44.728;11.290;2024-01-10T10:03:21;16.77;;;9.65;;
78772;SDS011;68111;44.728;11.290;2024-01-10T10:05:48;17.10;;;9.93;;
78772;SDS011;68111;44.728;11.290;2024-01-10T10:08:15;22.73;;;11.02;;
78772;SDS011;68111;44.728;11.290;2024-01-10T10:10:49;19.88;;;10.43;;
78772;SDS011;68111;44.728;11.290;2024-01-10T10:13:26;20.38;;;10.50;;
78772;SDS011;68111;44.728;11.290;2024-01-10T10:16:01;18.55;;;9.35;;
78772;SDS011;68111;44.728;11.290;2024-01-10T10:18:29;19.50;;;9.73;;
78772;SDS011;68111;44.728;11.290;2024-01-10T10:21:06;18.40;;;9.65;;
78772;SDS011;68111;44.728;11.290;2024-01-10T10:23:39;19.97;;;10.53;;
78772;SDS011;68111;44.728;11.290;2024-01-10T10:26:26;18.80;;;9.93;;
78772;SDS011;68111;44.728;11.290;2024-01-10T10:28:59;18.35;;;9.43;;
78772;SDS011;68111;44.728;11.290;2024-01-10T10:31:26;14.80;;;8.73;;
78772;SDS011;68111;44.728;11.290;2024-01-10T10:33:53;18.13;;;10.20;;
78772;SDS011;68111;44.728;11.290;2024-01-10T10:36:21;18.02;;;10.05;;
78772;SDS011;68111;44.728;11.290;2024-01-10T10:38:49;15.05;;;9.15;;
78772;SDS011;68111;44.728;11.290;2024-01-10T10:41:15;17.33;;;8.98;;
78772;SDS011;68111;44.728;11.290;2024-01-10T10:43:42;15.77;;;8.80;;
78772;SDS011;68111;44.728;11.290;2024-01-10T10:46:10;18.42;;;10.63;;
78772;SDS011;68111;44.728;11.290;2024-01-10T10:48:41;17.85;;;9.50;;
78772;SDS011;68111;44.728;11.290;2024-01-10T10:51:11;19.45;;;9.43;;
78772;SDS011;68111;44.728;11.290;2024-01-10T10:53:42;17.83;;;9.10;;
78772;SDS011;68111;44.728;11.290;2024-01-10T10:56:12;16.65;;;9.38;;
78772;SDS011;68111;44.728;11.290;2024-01-10T10:58:40;17.48;;;9.48;;
78772;SDS011;68111;44.728;11.290;2024-01-10T11:01:10;16.90;;;8.60;;
78772;SDS011;68111;44.728;11.290;2024-01-10T11:03:39;14.63;;;8.50;;
78772;SDS011;68111;44.728;11.290;2024-01-10T11:06:08;15.98;;;9.00;;
78772;SDS011;68111;44.728;11.290;2024-01-10T11:08:37;18.08;;;9.35;;
78772;SDS011;68111;44.728;11.290;2024-01-10T11:11:11;20.00;;;9.00;;
78772;SDS011;68111;44.728;11.290;2024-01-10T11:16:59;18.73;;;8.73;;
78772;SDS011;68111;44.728;11.290;2024-01-10T11:25:37;15.77;;;8.50;;
78772;SDS011;68111;44.728;11.290;2024-01-10T11:28:04;16.58;;;8.75;;
78772;SDS011;68111;44.728;11.290;2024-01-10T11:30:37;15.07;;;8.65;;
78772;SDS011;68111;44.728;11.290;2024-01-10T11:33:25;18.27;;;8.98;;
78772;SDS011;68111;44.728;11.290;2024-01-10T11:36:13;18.02;;;8.77;;
78772;SDS011;68111;44.728;11.290;2024-01-10T11:41:22;18.50;;;9.68;;
78772;SDS011;68111;44.728;11.290;2024-01-10T11:46:42;16.40;;;8.40;;
78772;SDS011;68111;44.728;11.290;2024-01-10T11:49:12;15.55;;;8.25;;
78772;SDS011;68111;44.728;11.290;2024-01-10T11:51:42;16.30;;;8.32;;
78772;SDS011;68111;44.728;11.290;2024-01-10T11:54:28;18.20;;;8.23;;
78772;SDS011;68111;44.728;11.290;2024-01-10T11:57:02;15.70;;;7.95;;
78772;SDS011;68111;44.728;11.290;2024-01-10T11:59:33;18.90;;;8.77;;
78772;SDS011;68111;44.728;11.290;2024-01-10T12:02:01;17.55;;;8.70;;
78772;SDS011;68111;44.728;11.290;2024-01-10T12:04:36;15.23;;;8.52;;
78772;SDS011;68111;44.728;11.290;2024-01-10T12:07:13;17.73;;;9.13;;
78772;SDS011;68111;44.728;11.290;2024-01-10T12:09:42;14.07;;;7.90;;
78772;SDS011;68111;44.728;11.290;2024-01-10T12:12:09;18.42;;;9.85;;
78772;SDS011;68111;44.728;11.290;2024-01-10T12:14:40;16.60;;;8.55;;
78772;SDS011;68111;44.728;11.290;2024-01-10T12:17:07;16.52;;;9.07;;
78772;SDS011;68111;44.728;11.290;2024-01-10T12:19:35;19.10;;;8.85;;
78772;SDS011;68111;44.728;11.290;2024-01-10T12:22:06;13.63;;;7.63;;
78772;SDS011;68111;44.728;11.290;2024-01-10T12:24:42;16.27;;;8.23;;
78772;SDS011;68111;44.728;11.290;2024-01-10T12:27:15;14.57;;;7.80;;
78772;SDS011;68111;44.728;11.290;2024-01-10T12:29:43;16.20;;;8.17;;
78772;SDS011;68111;44.728;11.290;2024-01-10T12:32:10;17.23;;;8.57;;
78772;SDS011;68111;44.728;11.290;2024-01-10T12:34:37;15.35;;;7.72;;
78772;SDS011;68111;44.728;11.290;2024-01-10T12:37:05;13.70;;;7.55;;
78772;SDS011;68111;44.728;11.290;2024-01-10T12:39:32;13.32;;;7.43;;
78772;SDS011;68111;44.728;11.290;2024-01-10T12:42:00;12.93;;;7.35;;
78772;SDS011;68111;44.728;11.290;2024-01-10T12:44:27;15.98;;;7.60;;
78772;SDS011;68111;44.728;11.290;2024-01-10T12:46:56;17.08;;;9.02;;
78772;SDS011;68111;44.728;11.290;2024-01-10T12:49:23;14.85;;;7.32;;
78772;SDS011;68111;44.728;11.290;2024-01-10T12:51:50;14.73;;;7.70;;
78772;SDS011;68111;44.728;11.290;2024-01-10T12:54:17;13.90;;;7.82;;
78772;SDS011;68111;44.728;11.290;2024-01-10T12:56:44;15.55;;;7.60;;
78772;SDS011;68111;44.728;11.290;2024-01-10T12:59:12;15.75;;;8.52;;
78772;SDS011;68111;44.728;11.290;2024-01-10T13:01:39;14.15;;;8.18;;
78772;SDS011;68111;44.728;11.290;2024-01-10T13:04:06;15.13;;;7.82;;
78772;SDS011;68111;44.728;11.290;2024-01-10T13:06:35;17.42;;;8.18;;
78772;SDS011;68111;44.728;11.290;2024-01-10T13:09:02;19.23;;;9.18;;
78772;SDS011;68111;44.728;11.290;2024-01-10T13:11:30;16.70;;;8.45;;
78772;SDS011;68111;44.728;11.290;2024-01-10T13:13:57;21.95;;;10.60;;
78772;SDS011;68111;44.728;11.290;2024-01-10T13:16:24;15.82;;;8.38;;
78772;SDS011;68111;44.728;11.290;2024-01-10T13:18:51;18.35;;;7.88;;
78772;SDS011;68111;44.728;11.290;2024-01-10T13:21:20;16.45;;;8.10;;
78772;SDS011;68111;44.728;11.290;2024-01-10T13:23:47;14.00;;;7.95;;
78772;SDS011;68111;44.728;11.290;2024-01-10T13:26:14;16.67;;;8.52;;
78772;SDS011;68111;44.728;11.290;2024-01-10T13:28:41;14.82;;;7.72;;
78772;SDS011;68111;44.728;11.290;2024-01-10T13:31:09;17.35;;;8.43;;
78772;SDS011;68111;44.728;11.290;2024-01-10T13:33:37;16.90;;;8.63;;
78772;SDS011;68111;44.728;11.290;2024-01-10T13:36:12;19.90;;;9.45;;
78772;SDS011;68111;44.728;11.290;2024-01-10T13:38:39;19.42;;;9.50;;
78772;SDS011;68111;44.728;11.290;2024-01-10T13:41:06;17.50;;;9.20;;
78772;SDS011;68111;44.728;11.290;2024-01-10T13:43:33;17.40;;;8.85;;
78772;SDS011;68111;44.728;11.290;2024-01-10T13:46:00;23.80;;;10.18;;
78772;SDS011;68111;44.728;11.290;2024-01-10T13:48:32;17.67;;;8.88;;
78772;SDS011;68111;44.728;11.290;2024-01-10T13:50:59;19.50;;;8.60;;
78772;SDS011;68111;44.728;11.290;2024-01-10T13:53:26;23.55;;;10.95;;
78772;SDS011;68111;44.728;11.290;2024-01-10T13:55:53;19.30;;;9.80;;
78772;SDS011;68111;44.728;11.290;2024-01-10T13:58:20;18.63;;;9.10;;
78772;SDS011;68111;44.728;11.290;2024-01-10T14:00:50;15.90;;;8.17;;
78772;SDS011;68111;44.728;11.290;2024-01-10T14:03:17;17.17;;;8.27;;
78772;SDS011;68111;44.728;11.290;2024-01-10T14:05:44;17.10;;;8.38;;
78772;SDS011;68111;44.728;11.290;2024-01-10T14:08:11;14.20;;;7.85;;
78772;SDS011;68111;44.728;11.290;2024-01-10T14:10:38;14.73;;;7.93;;
78772;SDS011;68111;44.728;11.290;2024-01-10T14:13:06;14.90;;;8.15;;
78772;SDS011;68111;44.728;11.290;2024-01-10T14:15:33;16.05;;;8.27;;
78772;SDS011;68111;44.728;11.290;2024-01-10T14:18:00;14.77;;;7.72;;
78772;SDS011;68111;44.728;11.290;2024-01-10T14:20:28;15.15;;;8.10;;
78772;SDS011;68111;44.728;11.290;2024-01-10T14:22:54;15.88;;;8.48;;
78772;SDS011;68111;44.728;11.290;2024-01-10T14:25:21;16.73;;;9.00;;
78772;SDS011;68111;44.728;11.290;2024-01-10T14:27:48;16.52;;;8.15;;
78772;SDS011;68111;44.728;11.290;2024-01-10T14:30:15;16.55;;;8.10;;
78772;SDS011;68111;44.728;11.290;2024-01-10T14:32:42;15.43;;;7.90;;
78772;SDS011;68111;44.728;11.290;2024-01-10T14:35:10;17.77;;;8.65;;
78772;SDS011;68111;44.728;11.290;2024-01-10T14:37:37;15.63;;;8.32;;
78772;SDS011;68111;44.728;11.290;2024-01-10T14:40:04;14.95;;;7.90;;
78772;SDS011;68111;44.728;11.290;2024-01-10T14:42:33;15.95;;;8.32;;
78772;SDS011;68111;44.728;11.290;2024-01-10T14:45:00;14.07;;;7.75;;